createdAt,value
2022-12-25T00:00:22.147Z,98581.66
2022-12-25T00:01:24.725Z,98579.31
2022-12-25T00:02:26.075Z,98578.53
2022-12-25T00:03:27.582Z,98577.22
2022-12-25T00:04:28.999Z,98573.03
2022-12-25T00:05:30.265Z,98571.16
2022-12-25T00:06:31.505Z,98578.06
2022-12-25T00:07:32.753Z,98576.69
2022-12-25T00:08:34.412Z,98580.41
2022-12-25T00:09:35.605Z,98585.69
2022-12-25T00:10:44.602Z,98584.03
2022-12-25T00:11:46.433Z,98581.66
2022-12-25T00:12:47.816Z,98587.19
2022-12-25T00:13:49.154Z,98584.75
2022-12-25T00:14:50.412Z,98593.75
2022-12-25T00:15:51.917Z,98592.97
2022-12-25T00:16:53.200Z,98587.69
2022-12-25T00:17:54.432Z,98594.81
2022-12-25T00:18:56.313Z,98597.44
2022-12-25T00:19:57.687Z,98589.53
2022-12-25T00:21:00.331Z,98589.25
2022-12-25T00:22:01.584Z,98591.91
2022-12-25T00:23:02.871Z,98592.38
2022-12-25T00:24:04.193Z,98584.75
2022-12-25T00:25:05.677Z,98581.31
2022-12-25T00:26:07.762Z,98581.59
2022-12-25T00:27:09.084Z,98583.97
2022-12-25T00:28:10.373Z,98577.31
2022-12-25T00:29:12.359Z,98583.38
2022-12-25T00:30:13.712Z,98581.81
2022-12-25T00:31:16.669Z,98576.81
2022-12-25T00:32:17.988Z,98571.53
2022-12-25T00:33:19.381Z,98578.69
2022-12-25T00:34:20.637Z,98571.53
2022-12-25T00:35:21.871Z,98570.25
2022-12-25T00:36:23.246Z,98571.53
2022-12-25T00:37:24.465Z,98571.53
2022-12-25T00:38:26.369Z,98573.41
2022-12-25T00:39:27.618Z,98567.03
2022-12-25T00:40:28.839Z,98569.69
2022-12-25T00:41:30.056Z,98570.47
2022-12-25T00:42:31.259Z,98571.53
2022-12-25T00:43:32.547Z,98573.41
2022-12-25T00:44:33.816Z,98573.41
2022-12-25T00:45:35.137Z,98574.47
2022-12-25T00:46:36.618Z,98576.31
2022-12-25T00:47:37.932Z,98578.94
2022-12-25T00:48:39.600Z,98582.03
2022-12-25T00:49:40.900Z,98574.59
2022-12-25T00:50:42.177Z,98583.59
2022-12-25T00:51:43.434Z,98584.97
2022-12-25T00:52:44.710Z,98581.56
2022-12-25T00:53:45.939Z,98584.19
2022-12-25T00:54:47.136Z,98583.69
2022-12-25T00:55:55.363Z,98583.38
2022-12-25T00:56:56.620Z,98583.13
2022-12-25T00:57:58.617Z,98583.91
2022-12-25T00:58:59.907Z,98583.38
2022-12-25T01:00:01.218Z,98587.31
2022-12-25T01:01:02.848Z,98584.19
2022-12-25T01:02:04.385Z,98578.09
2022-12-25T01:03:05.741Z,98579.16
2022-12-25T01:04:07.109Z,98573.09
2022-12-25T01:05:08.648Z,98586.31
2022-12-25T01:06:10.770Z,98581.03
2022-12-25T01:07:12.012Z,98577.59
2022-12-25T01:08:13.255Z,98575.44
2022-12-25T01:09:14.525Z,98583.59
2022-12-25T01:10:15.876Z,98573.03
2022-12-25T01:11:17.142Z,98574.88
2022-12-25T01:12:18.425Z,98575.97
2022-12-25T01:13:19.677Z,98580.47
2022-12-25T01:14:20.951Z,98576.19
2022-12-25T01:15:22.210Z,98580.09
2022-12-25T01:16:23.546Z,98574.53
2022-12-25T01:17:24.892Z,98574.03
2022-12-25T01:18:26.162Z,98568.19
2022-12-25T01:19:27.404Z,98573.16
2022-12-25T01:20:28.693Z,98573.16
2022-12-25T01:21:30.441Z,98572.88
2022-12-25T01:22:31.769Z,98581.88
2022-12-25T01:23:33.008Z,98582.44
2022-12-25T01:24:34.563Z,98581.97
2022-12-25T01:25:35.818Z,98584.59
2022-12-25T01:26:37.075Z,98589.66
2022-12-25T01:27:39.182Z,98582.03
2022-12-25T01:28:40.749Z,98588.09
2022-12-25T01:29:42.021Z,98591.22
2022-12-25T01:30:49.539Z,98587.53
2022-12-25T01:31:50.841Z,98587.53
2022-12-25T01:32:52.375Z,98592.31
2022-12-25T01:33:53.745Z,98597.59
2022-12-25T01:34:56.273Z,98595.75
2022-12-25T01:35:57.759Z,98592.31
2022-12-25T01:36:59.125Z,98597.34
2022-12-25T01:38:00.483Z,98603.88
2022-12-25T01:39:01.727Z,98605.75
2022-12-25T01:40:03.530Z,98604.66
2022-12-25T01:41:04.878Z,98604.09
2022-12-25T01:42:06.305Z,98611.53
2022-12-25T01:43:28.402Z,98607.84
2022-12-25T01:44:35.275Z,98602.53
2022-12-25T01:45:44.308Z,98610.19
2022-12-25T01:46:45.651Z,98604.91
2022-12-25T01:47:46.952Z,98610.41
2022-12-25T01:48:48.678Z,98607.25
2022-12-25T01:49:50.499Z,98600.88
2022-12-25T01:50:55.335Z,98604.03
2022-12-25T01:51:59.021Z,98604.81
2022-12-25T01:53:00.281Z,98602.97
2022-12-25T01:54:03.517Z,98601.41
2022-12-25T01:55:05.006Z,98599.25
2022-12-25T01:56:07.907Z,98597.38
2022-12-25T01:57:11.159Z,98592.88
2022-12-25T01:58:13.003Z,98591.31
2022-12-25T01:59:16.061Z,98595.03
2022-12-25T02:00:17.409Z,98598.44
2022-12-25T02:01:18.816Z,98593.94
2022-12-25T02:02:20.877Z,98598.44
2022-12-25T02:03:22.591Z,98592.69
2022-12-25T02:04:23.918Z,98595.03
2022-12-25T02:05:29.267Z,98596.09
2022-12-25T02:06:30.567Z,98592.88
2022-12-25T02:07:34.473Z,98593.94
2022-12-25T02:08:35.865Z,98587.88
2022-12-25T02:09:37.141Z,98593.69
2022-12-25T02:10:38.428Z,98596.03
2022-12-25T02:11:39.712Z,98588.88
2022-12-25T02:12:41.164Z,98596.03
2022-12-25T02:13:42.375Z,98600.25
2022-12-25T02:14:44.266Z,98597.88
2022-12-25T02:15:54.985Z,98595.25
2022-12-25T02:17:03.830Z,98594.94
2022-12-25T02:18:10.001Z,98596.03
2022-12-25T02:19:31.083Z,98603.66
2022-12-25T02:20:57.097Z,98594.16
2022-12-25T02:22:07.105Z,98600.53
2022-12-25T02:23:26.766Z,98593.69
2022-12-25T02:24:35.736Z,98601.31
2022-12-25T02:25:45.970Z,98589.19
2022-12-25T02:27:06.175Z,98584.66
2022-12-25T02:28:10.242Z,98585.44
2022-12-25T02:29:17.192Z,98582.03
2022-12-25T02:30:18.609Z,98579.88
2022-12-25T02:31:29.509Z,98583.28
2022-12-25T02:32:33.559Z,98580.38
2022-12-25T02:33:41.398Z,98582.72
2022-12-25T02:34:45.513Z,98580.88
2022-12-25T02:35:48.711Z,98588.81
2022-12-25T02:36:52.896Z,98584.00
2022-12-25T02:38:04.496Z,98587.25
2022-12-25T02:39:10.381Z,98583.81
2022-12-25T02:40:16.678Z,98582.25
2022-12-25T02:41:17.965Z,98577.75
2022-12-25T02:42:33.922Z,98573.50
2022-12-25T02:43:38.650Z,98589.38
2022-12-25T02:44:43.030Z,98580.66
2022-12-25T02:45:56.002Z,98576.44
2022-12-25T02:46:57.428Z,98577.22
2022-12-25T02:47:58.761Z,98576.16
2022-12-25T02:49:03.209Z,98579.59
2022-12-25T02:50:05.427Z,98576.97
2022-12-25T02:51:09.507Z,98582.72
2022-12-25T02:52:16.430Z,98580.38
2022-12-25T02:53:17.845Z,98576.97
2022-12-25T02:54:21.907Z,98585.84
2022-12-25T02:55:27.229Z,98581.94
2022-12-25T02:56:29.444Z,98584.81
2022-12-25T02:57:33.646Z,98580.88
2022-12-25T02:58:37.093Z,98581.16
2022-12-25T02:59:40.493Z,98579.88
2022-12-25T03:00:44.885Z,98590.75
2022-12-25T03:01:46.366Z,98585.94
2022-12-25T03:02:48.845Z,98586.53
2022-12-25T03:03:51.081Z,98592.31
2022-12-25T03:04:55.036Z,98586.22
2022-12-25T03:05:59.709Z,98588.41
2022-12-25T03:07:00.999Z,98579.94
2022-12-25T03:08:03.939Z,98579.66
2022-12-25T03:09:06.106Z,98578.38
2022-12-25T03:10:09.261Z,98579.94
2022-12-25T03:11:12.341Z,98570.16
2022-12-25T03:12:18.066Z,98565.94
2022-12-25T03:13:22.483Z,98570.44
2022-12-25T03:14:23.841Z,98566.16
2022-12-25T03:15:25.419Z,98574.09
2022-12-25T03:16:26.734Z,98566.72
2022-12-25T03:17:28.044Z,98556.44
2022-12-25T03:18:31.080Z,98569.06
2022-12-25T03:19:33.412Z,98563.53
2022-12-25T03:20:34.794Z,98571.72
2022-12-25T03:21:36.030Z,98564.88
2022-12-25T03:22:37.656Z,98570.44
2022-12-25T03:23:40.241Z,98561.75
2022-12-25T03:24:41.504Z,98552.94
2022-12-25T03:25:43.857Z,98553.34
2022-12-25T03:26:45.448Z,98546.78
2022-12-25T03:27:49.158Z,98547.06
2022-12-25T03:28:50.419Z,98544.22
2022-12-25T03:29:51.673Z,98548.75
2022-12-25T03:31:13.484Z,98543.44
2022-12-25T03:32:23.706Z,98544.72
2022-12-25T03:33:47.413Z,98539.22
2022-12-25T03:34:53.972Z,98536.56
2022-12-25T03:36:22.863Z,98537.09
2022-12-25T03:37:24.133Z,98543.44
2022-12-25T03:38:50.523Z,98544.81
2022-12-25T03:40:02.794Z,98532.44
2022-12-25T03:41:14.096Z,98535.38
2022-12-25T03:42:18.864Z,98531.19
2022-12-25T03:43:38.987Z,98536.72
2022-12-25T03:44:51.065Z,98534.31
2022-12-25T03:45:57.707Z,98535.59
2022-12-25T03:47:04.680Z,98536.09
2022-12-25T03:48:07.412Z,98540.88
2022-12-25T03:49:17.575Z,98535.38
2022-12-25T03:50:22.010Z,98529.03
2022-12-25T03:51:26.049Z,98537.50
2022-12-25T03:52:28.152Z,98524.50
2022-12-25T03:53:31.358Z,98523.72
2022-12-25T03:54:33.412Z,98517.66
2022-12-25T03:55:36.246Z,98519.53
2022-12-25T03:56:38.178Z,98524.72
2022-12-25T03:57:39.458Z,98519.75
2022-12-25T03:58:50.125Z,98526.59
2022-12-25T03:59:51.389Z,98520.78
2022-12-25T04:00:52.769Z,98520.00
2022-12-25T04:01:54.150Z,98513.16
2022-12-25T04:02:55.717Z,98513.72
2022-12-25T04:03:57.069Z,98511.88
2022-12-25T04:04:58.330Z,98507.88
2022-12-25T04:05:59.600Z,98521.38
2022-12-25T04:07:00.835Z,98513.25
2022-12-25T04:08:02.040Z,98518.81
2022-12-25T04:09:03.287Z,98516.44
2022-12-25T04:10:04.828Z,98528.09
2022-12-25T04:11:06.031Z,98533.38
2022-12-25T04:12:07.252Z,98535.47
2022-12-25T04:13:08.533Z,98527.72
2022-12-25T04:14:09.789Z,98521.38
2022-12-25T04:15:11.033Z,98527.72
2022-12-25T04:16:12.369Z,98523.81
2022-12-25T04:17:13.665Z,98521.47
2022-12-25T04:18:14.969Z,98524.91
2022-12-25T04:19:16.246Z,98528.81
2022-12-25T04:20:17.585Z,98531.75
2022-12-25T04:21:18.881Z,98524.59
2022-12-25T04:22:20.186Z,98527.47
2022-12-25T04:23:21.433Z,98523.50
2022-12-25T04:24:22.649Z,98526.69
2022-12-25T04:25:23.936Z,98521.16
2022-12-25T04:26:25.196Z,98521.16
2022-12-25T04:27:26.414Z,98511.94
2022-12-25T04:28:27.642Z,98508.81
2022-12-25T04:29:28.850Z,98506.19
2022-12-25T04:30:30.089Z,98511.47
2022-12-25T04:31:31.369Z,98500.88
2022-12-25T04:32:32.687Z,98501.38
2022-12-25T04:33:33.963Z,98500.88
2022-12-25T04:34:35.220Z,98500.41
2022-12-25T04:35:36.483Z,98499.31
2022-12-25T04:36:37.693Z,98498.03
2022-12-25T04:37:38.982Z,98505.47
2022-12-25T04:38:40.837Z,98500.97
2022-12-25T04:39:42.088Z,98498.91
2022-12-25T04:40:43.395Z,98503.31
2022-12-25T04:41:44.606Z,98500.19
2022-12-25T04:42:45.857Z,98499.97
2022-12-25T04:43:47.110Z,98508.69
2022-12-25T04:44:48.362Z,98507.91
2022-12-25T04:45:53.425Z,98504.97
2022-12-25T04:46:54.708Z,98494.97
2022-12-25T04:47:58.587Z,98490.19
2022-12-25T04:48:59.853Z,98493.03
2022-12-25T04:50:01.231Z,98492.75
2022-12-25T04:51:19.151Z,98499.09
2022-12-25T04:52:20.377Z,98500.66
2022-12-25T04:53:21.723Z,98502.84
2022-12-25T04:54:23.122Z,98497.31
2022-12-25T04:55:24.371Z,98506.34
2022-12-25T04:56:25.634Z,98506.34
2022-12-25T04:57:26.879Z,98498.63
2022-12-25T04:58:28.165Z,98500.75
2022-12-25T04:59:29.524Z,98491.75
2022-12-25T05:00:30.827Z,98494.38
2022-12-25T05:01:32.181Z,98490.41
2022-12-25T05:02:33.884Z,98496.75
2022-12-25T05:03:35.641Z,98493.81
2022-12-25T05:04:36.889Z,98495.38
2022-12-25T05:05:39.375Z,98495.69
2022-12-25T05:06:40.647Z,98495.69
2022-12-25T05:07:41.885Z,98491.47
2022-12-25T05:08:43.241Z,98501.19
2022-12-25T05:09:44.509Z,98492.75
2022-12-25T05:10:45.872Z,98478.47
2022-12-25T05:11:47.180Z,98486.69
2022-12-25T05:12:48.510Z,98478.25
2022-12-25T05:13:49.738Z,98480.59
2022-12-25T05:14:51.027Z,98474.75
2022-12-25T05:15:52.479Z,98472.97
2022-12-25T05:16:53.806Z,98469.56
2022-12-25T05:17:55.096Z,98471.81
2022-12-25T05:18:56.820Z,98477.03
2022-12-25T05:19:58.092Z,98477.88
2022-12-25T05:20:59.375Z,98475.53
2022-12-25T05:22:00.653Z,98478.47
2022-12-25T05:23:01.923Z,98471.34
2022-12-25T05:24:03.259Z,98477.09
2022-12-25T05:25:04.673Z,98473.19
2022-12-25T05:26:06.923Z,98480.81
2022-12-25T05:27:08.200Z,98470.81
2022-12-25T05:28:09.415Z,98475.03
2022-12-25T05:29:10.697Z,98477.59
2022-12-25T05:30:12.026Z,98478.41
2022-12-25T05:31:13.353Z,98473.69
2022-12-25T05:32:14.641Z,98480.53
2022-12-25T05:33:15.906Z,98481.13
2022-12-25T05:34:17.113Z,98478.97
2022-12-25T05:35:18.309Z,98484.25
2022-12-25T05:36:19.653Z,98477.41
2022-12-25T05:37:20.881Z,98472.91
2022-12-25T05:38:22.155Z,98474.47
2022-12-25T05:39:23.692Z,98471.81
2022-12-25T05:40:24.933Z,98476.31
2022-12-25T05:41:30.723Z,98473.38
2022-12-25T05:42:35.329Z,98478.66
2022-12-25T05:43:36.569Z,98475.53
2022-12-25T05:44:37.790Z,98477.88
2022-12-25T05:45:39.045Z,98475.66
2022-12-25T05:46:40.336Z,98470.66
2022-12-25T05:47:41.578Z,98463.03
2022-12-25T05:48:42.856Z,98467.81
2022-12-25T05:49:44.112Z,98458.53
2022-12-25T05:50:45.347Z,98457.75
2022-12-25T05:51:46.623Z,98446.38
2022-12-25T05:52:47.897Z,98445.31
2022-12-25T05:53:49.156Z,98447.94
2022-12-25T05:54:50.422Z,98443.75
2022-12-25T05:55:51.630Z,98451.66
2022-12-25T05:56:52.841Z,98452.44
2022-12-25T05:57:54.075Z,98450.88
2022-12-25T05:58:55.352Z,98444.22
2022-12-25T05:59:56.875Z,98453.94
2022-12-25T06:00:58.291Z,98446.50
2022-12-25T06:01:59.900Z,98442.56
2022-12-25T06:03:01.397Z,98443.13
2022-12-25T06:04:05.805Z,98440.31
2022-12-25T06:05:11.517Z,98438.66
2022-12-25T06:06:12.857Z,98431.31
2022-12-25T06:07:14.347Z,98438.66
2022-12-25T06:08:15.600Z,98433.66
2022-12-25T06:09:16.870Z,98435.03
2022-12-25T06:10:18.364Z,98432.97
2022-12-25T06:11:19.614Z,98425.63
2022-12-25T06:12:20.853Z,98436.38
2022-12-25T06:13:22.144Z,98434.53
2022-12-25T06:14:23.432Z,98435.03
2022-12-25T06:15:24.717Z,98441.41
2022-12-25T06:16:26.103Z,98436.50
2022-12-25T06:17:27.529Z,98439.16
2022-12-25T06:18:28.772Z,98440.22
2022-12-25T06:19:30.047Z,98440.81
2022-12-25T06:20:31.282Z,98440.00
2022-12-25T06:21:32.777Z,98446.38
2022-12-25T06:22:34.524Z,98439.25
2022-12-25T06:23:36.642Z,98445.88
2022-12-25T06:24:37.937Z,98439.03
2022-12-25T06:25:39.943Z,98438.25
2022-12-25T06:26:41.157Z,98435.59
2022-12-25T06:27:42.496Z,98435.91
2022-12-25T06:28:43.937Z,98443.53
2022-12-25T06:29:45.149Z,98437.06
2022-12-25T06:30:46.374Z,98431.78
2022-12-25T06:31:47.735Z,98428.38
2022-12-25T06:32:49.142Z,98423.06
2022-12-25T06:33:50.390Z,98426.22
2022-12-25T06:34:52.017Z,98428.38
2022-12-25T06:35:53.249Z,98421.03
2022-12-25T06:36:54.548Z,98433.47
2022-12-25T06:37:55.918Z,98430.00
2022-12-25T06:38:59.738Z,98433.94
2022-12-25T06:40:01.003Z,98432.31
2022-12-25T06:41:03.195Z,98430.91
2022-12-25T06:42:04.460Z,98432.31
2022-12-25T06:43:05.754Z,98433.66
2022-12-25T06:44:07.066Z,98436.03
2022-12-25T06:45:08.542Z,98442.09
2022-12-25T06:46:10.834Z,98438.66
2022-12-25T06:47:12.109Z,98440.22
2022-12-25T06:48:13.329Z,98437.84
2022-12-25T06:49:14.614Z,98433.66
2022-12-25T06:50:15.897Z,98438.16
2022-12-25T06:51:17.599Z,98437.06
2022-12-25T06:52:18.809Z,98435.22
2022-12-25T06:53:20.042Z,98437.06
2022-12-25T06:54:21.311Z,98443.97
2022-12-25T06:55:22.508Z,98443.44
2022-12-25T06:56:25.162Z,98442.66
2022-12-25T06:57:26.392Z,98446.09
2022-12-25T06:58:28.193Z,98447.16
2022-12-25T06:59:29.498Z,98441.41
2022-12-25T07:00:30.785Z,98436.88
2022-12-25T07:01:35.065Z,98451.88
2022-12-25T07:02:36.507Z,98447.06
2022-12-25T07:03:37.801Z,98444.13
2022-12-25T07:04:40.324Z,98452.38
2022-12-25T07:05:41.636Z,98445.22
2022-12-25T07:06:42.889Z,98448.38
2022-12-25T07:07:44.178Z,98447.84
2022-12-25T07:08:45.436Z,98460.28
2022-12-25T07:09:46.687Z,98453.44
2022-12-25T07:10:47.937Z,98456.09
2022-12-25T07:11:49.245Z,98458.72
2022-12-25T07:12:50.485Z,98458.72
2022-12-25T07:13:51.809Z,98453.72
2022-12-25T07:14:53.944Z,98457.16
2022-12-25T07:15:58.497Z,98465.88
2022-12-25T07:16:59.990Z,98459.81
2022-12-25T07:18:01.454Z,98466.94
2022-12-25T07:19:02.740Z,98466.94
2022-12-25T07:20:04.146Z,98459.81
2022-12-25T07:21:09.204Z,98456.66
2022-12-25T07:22:10.452Z,98457.94
2022-12-25T07:23:11.744Z,98448.16
2022-12-25T07:24:17.596Z,98454.53
2022-12-25T07:25:18.864Z,98446.00
2022-12-25T07:26:20.119Z,98445.22
2022-12-25T07:27:24.401Z,98442.56
2022-12-25T07:28:26.085Z,98444.13
2022-12-25T07:29:27.359Z,98445.63
2022-12-25T07:30:28.704Z,98447.47
2022-12-25T07:31:30.075Z,98448.28
2022-12-25T07:32:31.880Z,98437.72
2022-12-25T07:33:33.586Z,98437.41
2022-12-25T07:34:34.856Z,98434.75
2022-12-25T07:35:36.103Z,98431.03
2022-12-25T07:36:39.452Z,98429.97
2022-12-25T07:37:40.724Z,98426.53
2022-12-25T07:38:42.322Z,98428.59
2022-12-25T07:39:43.573Z,98419.88
2022-12-25T07:40:47.082Z,98418.25
2022-12-25T07:41:48.310Z,98418.25
2022-12-25T07:42:49.638Z,98414.31
2022-12-25T07:43:51.231Z,98417.44
2022-12-25T07:44:52.466Z,98420.88
2022-12-25T07:45:57.444Z,98420.06
2022-12-25T07:46:58.756Z,98415.59
2022-12-25T07:48:05.190Z,98414.00
2022-12-25T07:49:07.208Z,98405.81
2022-12-25T07:50:10.107Z,98407.06
2022-12-25T07:51:12.962Z,98402.28
2022-12-25T07:52:14.225Z,98400.69
2022-12-25T07:53:15.438Z,98405.69
2022-12-25T07:54:16.703Z,98407.56
2022-12-25T07:55:17.962Z,98409.44
2022-12-25T07:56:19.904Z,98413.91
2022-12-25T07:57:21.153Z,98415.50
2022-12-25T07:58:23.555Z,98409.69
2022-12-25T07:59:27.170Z,98410.00
2022-12-25T08:00:28.393Z,98407.06
2022-12-25T08:01:29.933Z,98411.25
2022-12-25T08:02:31.783Z,98415.97
2022-12-25T08:03:34.252Z,98418.16
2022-12-25T08:04:35.666Z,98410.22
2022-12-25T08:05:36.892Z,98417.06
2022-12-25T08:06:41.149Z,98418.16
2022-12-25T08:07:42.389Z,98412.34
2022-12-25T08:08:43.659Z,98420.59
2022-12-25T08:09:44.914Z,98426.34
2022-12-25T08:10:47.258Z,98429.28
2022-12-25T08:11:51.564Z,98427.13
2022-12-25T08:12:55.465Z,98436.13
2022-12-25T08:13:56.734Z,98430.84
2022-12-25T08:14:57.972Z,98435.38
2022-12-25T08:16:00.165Z,98431.63
2022-12-25T08:17:01.595Z,98432.72
2022-12-25T08:18:02.889Z,98445.94
2022-12-25T08:19:04.109Z,98447.31
2022-12-25T08:20:05.837Z,98444.69
2022-12-25T08:21:08.735Z,98445.16
2022-12-25T08:22:10.035Z,98444.38
2022-12-25T08:23:11.360Z,98449.38
2022-12-25T08:24:12.566Z,98453.31
2022-12-25T08:25:13.841Z,98452.22
2022-12-25T08:26:16.805Z,98458.28
2022-12-25T08:27:18.090Z,98450.34
2022-12-25T08:28:19.308Z,98449.28
2022-12-25T08:29:20.944Z,98446.63
2022-12-25T08:30:22.168Z,98445.53
2022-12-25T08:31:30.280Z,98445.28
2022-12-25T08:32:34.737Z,98439.19
2022-12-25T08:33:36.481Z,98437.34
2022-12-25T08:34:38.212Z,98436.25
2022-12-25T08:35:39.515Z,98438.13
2022-12-25T08:36:40.743Z,98441.84
2022-12-25T08:37:42.053Z,98435.19
2022-12-25T08:38:43.688Z,98448.91
2022-12-25T08:39:44.928Z,98439.59
2022-12-25T08:40:46.195Z,98443.53
2022-12-25T08:41:47.475Z,98442.91
2022-12-25T08:42:48.757Z,98442.34
2022-12-25T08:43:50.156Z,98440.97
2022-12-25T08:44:51.522Z,98448.63
2022-12-25T08:45:52.768Z,98443.03
2022-12-25T08:46:54.083Z,98440.28
2022-12-25T08:48:16.826Z,98446.88
2022-12-25T08:49:18.074Z,98442.72
2022-12-25T08:50:19.333Z,98444.78
2022-12-25T08:51:24.531Z,98445.28
2022-12-25T08:52:25.824Z,98446.56
2022-12-25T08:53:27.180Z,98443.31
2022-12-25T08:54:28.436Z,98445.69
2022-12-25T08:55:29.733Z,98434.31
2022-12-25T08:56:31.077Z,98440.38
2022-12-25T08:57:36.095Z,98440.66
2022-12-25T08:58:37.630Z,98435.66
2022-12-25T08:59:38.899Z,98429.28
2022-12-25T09:00:40.621Z,98432.56
2022-12-25T09:01:45.327Z,98426.94
2022-12-25T09:02:46.838Z,98418.81
2022-12-25T09:03:48.387Z,98422.84
2022-12-25T09:04:49.621Z,98416.28
2022-12-25T09:05:51.548Z,98409.72
2022-12-25T09:06:52.806Z,98403.94
2022-12-25T09:07:54.192Z,98403.16
2022-12-25T09:08:55.424Z,98397.84
2022-12-25T09:09:59.064Z,98391.00
2022-12-25T09:11:05.170Z,98387.88
2022-12-25T09:12:06.493Z,98382.88
2022-12-25T09:13:07.981Z,98373.06
2022-12-25T09:14:09.258Z,98385.91
2022-12-25T09:15:13.514Z,98384.31
2022-12-25T09:16:16.388Z,98382.19
2022-12-25T09:17:17.638Z,98380.09
2022-12-25T09:18:18.903Z,98391.47
2022-12-25T09:19:20.192Z,98394.44
2022-12-25T09:20:23.528Z,98390.22
2022-12-25T09:21:24.810Z,98394.22
2022-12-25T09:22:26.158Z,98396.88
2022-12-25T09:23:27.828Z,98395.81
2022-12-25T09:24:29.085Z,98397.66
2022-12-25T09:25:30.424Z,98399.03
2022-12-25T09:26:31.763Z,98403.25
2022-12-25T09:27:33.046Z,98405.41
2022-12-25T09:28:34.386Z,98408.53
2022-12-25T09:29:35.661Z,98406.88
2022-12-25T09:30:37.007Z,98406.41
2022-12-25T09:31:38.454Z,98411.38
2022-12-25T09:32:39.874Z,98403.34
2022-12-25T09:33:41.192Z,98396.97
2022-12-25T09:34:42.603Z,98401.94
2022-12-25T09:35:43.836Z,98405.88
2022-12-25T09:36:45.061Z,98408.72
2022-12-25T09:37:46.401Z,98407.53
2022-12-25T09:38:47.599Z,98402.25
2022-12-25T09:39:48.840Z,98401.94
2022-12-25T09:41:05.082Z,98403.81
2022-12-25T09:42:18.941Z,98407.44
2022-12-25T09:43:20.586Z,98407.91
2022-12-25T09:44:26.647Z,98412.63
2022-12-25T09:45:35.616Z,98409.66
2022-12-25T09:46:55.595Z,98410.44
2022-12-25T09:47:57.355Z,98405.66
2022-12-25T09:49:03.237Z,98410.22
2022-12-25T09:50:20.446Z,98412.88
2022-12-25T09:51:22.916Z,98410.53
2022-12-25T09:52:35.386Z,98409.75
2022-12-25T09:53:38.474Z,98411.63
2022-12-25T09:54:59.187Z,98411.03
2022-12-25T09:56:06.212Z,98414.47
2022-12-25T09:57:11.743Z,98416.03
2022-12-25T09:58:13.345Z,98416.03
2022-12-25T09:59:24.928Z,98418.56
2022-12-25T10:00:31.780Z,98414.34
2022-12-25T10:01:40.155Z,98415.31
2022-12-25T10:03:00.778Z,98408.63
2022-12-25T10:04:40.989Z,98406.00
2022-12-25T10:05:45.537Z,98407.28
2022-12-25T10:08:18.657Z,98398.13
2022-12-25T10:09:47.836Z,98398.31
2022-12-25T10:11:08.044Z,98393.50
2022-12-25T10:12:22.445Z,98396.03
2022-12-25T10:13:27.244Z,98389.38
2022-12-25T10:14:37.827Z,98396.13
2022-12-25T10:15:51.408Z,98384.00
2022-12-25T10:17:04.967Z,98377.78
2022-12-25T10:18:13.056Z,98372.88
2022-12-25T10:19:24.218Z,98381.16
2022-12-25T10:20:44.819Z,98376.94
2022-12-25T10:21:49.008Z,98377.13
2022-12-25T10:22:52.732Z,98373.41
2022-12-25T10:24:05.945Z,98375.56
2022-12-25T10:25:14.640Z,98367.63
2022-12-25T10:26:22.738Z,98369.66
2022-12-25T10:27:42.010Z,98372.50
2022-12-25T10:30:17.350Z,98367.09
2022-12-25T10:31:23.874Z,98369.13
2022-12-25T10:32:26.396Z,98368.34
2022-12-25T10:33:28.825Z,98355.88
2022-12-25T10:34:32.132Z,98356.69
2022-12-25T10:35:37.644Z,98359.34
2022-12-25T10:36:44.291Z,98356.38
2022-12-25T10:37:46.632Z,98352.31
2022-12-25T10:38:48.570Z,98344.06
2022-12-25T10:39:49.868Z,98349.06
2022-12-25T10:41:00.034Z,98347.97
2022-12-25T10:42:12.866Z,98338.63
2022-12-25T10:43:25.428Z,98336.44
2022-12-25T10:44:27.069Z,98338.00
2022-12-25T10:45:31.109Z,98334.28
2022-12-25T10:46:32.422Z,98331.31
2022-12-25T10:47:35.097Z,98333.66
2022-12-25T10:48:39.906Z,98328.53
2022-12-25T10:49:43.626Z,98330.56
2022-12-25T10:50:44.918Z,98330.44
2022-12-25T10:51:46.384Z,98333.22
2022-12-25T10:53:04.865Z,98329.66
2022-12-25T10:54:22.151Z,98322.19
2022-12-25T10:55:29.237Z,98323.91
2022-12-25T10:56:31.955Z,98317.69
2022-12-25T10:57:46.406Z,98320.00
2022-12-25T10:58:47.612Z,98312.69
2022-12-25T10:59:50.258Z,98321.28
2022-12-25T11:00:53.473Z,98313.00
2022-12-25T11:01:55.983Z,98311.28
2022-12-25T11:02:57.829Z,98320.97
2022-12-25T11:03:59.609Z,98316.59
2022-12-25T11:05:09.088Z,98305.22
2022-12-25T11:06:24.742Z,98309.09
2022-12-25T11:07:26.319Z,98311.00
2022-12-25T11:08:28.609Z,98318.50
2022-12-25T11:09:30.445Z,98309.75
2022-12-25T11:10:34.395Z,98311.13
2022-12-25T11:11:36.069Z,98312.84
2022-12-25T11:12:41.577Z,98304.59
2022-12-25T11:13:48.960Z,98308.66
2022-12-25T11:14:58.012Z,98300.50
2022-12-25T11:16:05.384Z,98298.34
2022-12-25T11:17:09.447Z,98307.38
2022-12-25T11:18:16.848Z,98306.00
2022-12-25T11:19:24.582Z,98304.47
2022-12-25T11:20:26.057Z,98303.03
2022-12-25T11:21:28.915Z,98302.41
2022-12-25T11:22:30.480Z,98301.16
2022-12-25T11:23:33.356Z,98305.38
2022-12-25T11:24:34.713Z,98303.03
2022-12-25T11:25:36.092Z,98301.47
2022-12-25T11:26:50.367Z,98299.16
2022-12-25T11:28:17.866Z,98302.38
2022-12-25T11:29:25.024Z,98294.91
2022-12-25T11:30:27.778Z,98291.94
2022-12-25T11:31:43.233Z,98290.84
2022-12-25T11:32:46.427Z,98292.56
2022-12-25T11:33:51.377Z,98291.47
2022-12-25T11:34:53.199Z,98283.00
2022-12-25T11:35:55.527Z,98280.03
2022-12-25T11:36:57.909Z,98285.31
2022-12-25T11:37:59.205Z,98285.31
2022-12-25T11:39:17.803Z,98278.59
2022-12-25T11:40:19.116Z,98278.28
2022-12-25T11:41:27.502Z,98285.31
2022-12-25T11:42:37.752Z,98278.88
2022-12-25T11:43:42.064Z,98279.19
2022-12-25T11:44:49.434Z,98271.72
2022-12-25T11:46:14.020Z,98273.25
2022-12-25T11:47:22.919Z,98267.47
2022-12-25T11:48:33.830Z,98270.91
2022-12-25T11:49:45.761Z,98255.59
2022-12-25T11:50:53.750Z,98266.66
2022-12-25T11:51:56.383Z,98258.84
2022-12-25T11:53:02.498Z,98254.44
2022-12-25T11:54:16.880Z,98261.31
2022-12-25T11:55:18.108Z,98251.91
2022-12-25T11:56:27.088Z,98255.81
2022-12-25T11:57:30.823Z,98260.50
2022-12-25T11:58:35.827Z,98256.09
2022-12-25T11:59:44.247Z,98257.66
2022-12-25T12:00:47.470Z,98249.53
2022-12-25T12:01:51.948Z,98251.19
2022-12-25T12:02:56.158Z,98246.16
2022-12-25T12:04:01.410Z,98243.31
2022-12-25T12:05:16.122Z,98243.72
2022-12-25T12:06:26.649Z,98238.69
2022-12-25T12:07:30.707Z,98242.22
2022-12-25T12:08:34.342Z,98241.16
2022-12-25T12:09:54.212Z,98237.03
2022-12-25T12:10:55.666Z,98229.91
2022-12-25T12:12:17.307Z,98221.25
2022-12-25T12:13:45.289Z,98209.91
2022-12-25T12:14:56.750Z,98205.22
2022-12-25T12:15:58.269Z,98199.25
2022-12-25T12:17:00.376Z,98210.69
2022-12-25T12:18:08.800Z,98213.50
2022-12-25T12:19:11.070Z,98210.16
2022-12-25T12:20:13.910Z,98205.59
2022-12-25T12:21:18.479Z,98209.06
2022-12-25T12:22:22.572Z,98206.84
2022-12-25T12:23:24.083Z,98197.09
2022-12-25T12:24:29.326Z,98201.59
2022-12-25T12:25:31.167Z,98196.38
2022-12-25T12:26:34.813Z,98194.28
2022-12-25T12:27:40.785Z,98195.66
2022-12-25T12:28:45.998Z,98190.34
2022-12-25T12:29:50.165Z,98190.34
2022-12-25T12:31:05.772Z,98188.88